Time;durP1;ratioP1;P1;durP2;ratioP2;P2;SDS_P1;SDS_P2;PMS_P1;PMS_P2;Temp;Humidity;BMP_temperature;BMP_pressure;BME280_temperature;BME280_humidity;BME280_pressure;Samples;Min_cycle;Max_cycle;Signal;HPM_P1;HPM_P2
2021/08/28 00:00:52;;;;;;;7.70;4.03;;;;;;;14.07;71.12;92713.28;2068241;69;20202;-73
2021/08/28 00:03:19;;;;;;;5.00;3.35;;;;;;;14.23;70.70;92719.72;2068296;69;20149;-73
2021/08/28 00:05:45;;;;;;;4.57;3.72;;;;;;;14.13;70.89;92716.41;2068256;69;20136;-74
2021/08/28 00:08:10;;;;;;;5.22;3.72;;;;;;;14.19;70.68;92707.47;2068040;69;20224;-73
2021/08/28 00:10:36;;;;;;;4.15;3.75;;;;;;;14.28;69.22;92708.59;2068392;69;20168;-74
2021/08/28 00:13:02;;;;;;;4.78;4.13;;;;;;;14.20;71.35;92706.84;2064917;69;20148;-73
2021/08/28 00:15:28;;;;;;;7.15;4.43;;;;;;;13.94;71.00;92711.25;2064807;69;20720;-73
2021/08/28 00:17:54;;;;;;;4.80;3.97;;;;;;;13.89;72.00;92709.59;2064899;69;20133;-73
2021/08/28 00:20:20;;;;;;;9.32;3.60;;;;;;;13.95;72.19;92707.03;2064831;69;20647;-73
2021/08/28 00:22:46;;;;;;;4.47;2.97;;;;;;;14.01;71.18;92698.09;2064690;69;20148;-73
2021/08/28 00:25:12;;;;;;;4.47;3.13;;;;;;;13.87;71.62;92701.72;2064971;69;20236;-74
2021/08/28 00:27:38;;;;;;;5.10;2.83;;;;;;;13.94;71.38;92699.94;2064979;69;20145;-73
2021/08/28 00:30:04;;;;;;;2.50;2.30;;;;;;;14.04;68.86;92699.69;2064833;69;20155;-73
2021/08/28 00:32:30;;;;;;;5.40;2.40;;;;;;;14.15;67.86;92684.63;2058822;69;20148;-74
2021/08/28 00:34:55;;;;;;;3.63;2.67;;;;;;;14.21;67.37;92680.00;2063986;69;20234;-73
2021/08/28 00:37:21;;;;;;;4.70;2.50;;;;;;;14.28;66.63;92685.94;2061410;69;20523;-72
2021/08/28 00:39:46;;;;;;;4.13;2.58;;;;;;;14.10;68.22;92682.97;2064318;69;20168;-73
2021/08/28 00:42:12;;;;;;;6.15;3.17;;;;;;;13.83;70.24;92684.53;2063769;69;20152;-73
2021/08/28 00:44:40;;;;;;;4.55;2.70;;;;;;;13.80;70.64;92687.91;2064206;69;20252;-73
2021/08/28 00:47:06;;;;;;;3.38;2.58;;;;;;;13.89;69.63;92686.94;2064542;69;20239;-73
2021/08/28 00:49:32;;;;;;;4.13;2.97;;;;;;;13.85;69.98;92679.00;2064794;69;20155;-73
2021/08/28 00:51:58;;;;;;;4.22;2.72;;;;;;;13.83;69.96;92684.53;2064146;69;20266;-74
2021/08/28 00:54:24;;;;;;;5.63;2.50;;;;;;;13.65;71.30;92687.22;2064253;69;20581;-73
2021/08/28 00:56:49;;;;;;;6.53;2.70;;;;;;;13.59;71.34;92692.56;2061464;69;20232;-73
2021/08/28 00:59:15;;;;;;;4.63;2.67;;;;;;;13.41;72.77;92686.00;2061332;69;20369;-74
2021/08/28 01:01:43;;;;;;;3.25;2.40;;;;;;;13.53;71.03;92691.53;2061472;69;20641;-73
2021/08/28 01:04:13;;;;;;;3.15;2.25;;;;;;;13.57;70.66;92692.47;2064068;69;20143;-73
2021/08/28 01:07:01;;;;;;;5.43;2.50;;;;;;;13.36;71.27;92695.66;2061339;69;20145;-73
2021/08/28 01:09:53;;;;;;;4.45;2.40;;;;;;;13.48;70.43;92693.44;2065156;69;20145;-74
2021/08/28 01:12:40;;;;;;;4.88;2.20;;;;;;;13.36;70.43;92701.31;2065293;69;20596;-73
2021/08/28 01:15:13;;;;;;;4.30;2.55;;;;;;;13.42;69.33;92691.03;2061947;69;20156;-73
2021/08/28 01:17:43;;;;;;;4.28;3.10;;;;;;;13.19;71.67;92685.56;2064749;69;20605;-73
2021/08/28 01:20:31;;;;;;;5.05;2.88;;;;;;;13.32;70.59;92689.78;2061729;69;20232;-73
2021/08/28 01:23:17;;;;;;;4.55;2.60;;;;;;;13.15;71.40;92688.22;2065129;69;20210;-74
2021/08/28 01:26:20;;;;;;;4.68;2.30;;;;;;;13.12;70.89;92681.72;2058459;69;20156;-74
2021/08/28 01:29:14;;;;;;;4.03;2.60;;;;;;;13.04;71.46;92672.09;2065358;69;20173;-74
2021/08/28 01:31:40;;;;;;;3.45;2.30;;;;;;;12.94;71.53;92669.47;2059556;69;20164;-73
2021/08/28 01:34:06;;;;;;;4.53;2.33;;;;;;;12.87;71.93;92676.16;2064540;69;20144;-73
2021/08/28 01:36:33;;;;;;;5.13;2.50;;;;;;;12.92;71.21;92675.00;2065151;69;20144;-73
2021/08/28 01:39:25;;;;;;;6.28;2.72;;;;;;;12.85;71.62;92679.63;2062146;69;20640;-73
2021/08/28 01:42:03;;;;;;;3.75;2.42;;;;;;;12.95;70.73;92673.75;2061910;69;20530;-73
2021/08/28 01:44:33;;;;;;;5.07;2.67;;;;;;;12.97;70.81;92666.13;2064706;69;20181;-73
2021/08/28 01:46:59;;;;;;;4.20;2.72;;;;;;;12.82;71.95;92671.66;2061925;69;20153;-73
2021/08/28 01:49:25;;;;;;;5.60;2.50;;;;;;;13.01;70.72;92671.25;2061878;69;20144;-73
2021/08/28 01:51:52;;;;;;;3.25;2.30;;;;;;;12.93;71.15;92670.84;2061720;69;20578;-74
2021/08/28 01:54:25;;;;;;;4.50;2.72;;;;;;;12.74;72.04;92674.81;2065158;69;20585;-74
2021/08/28 01:56:52;;;;;;;2.72;2.33;;;;;;;12.91;70.44;92684.84;2064648;69;20153;-74
2021/08/28 01:59:18;;;;;;;4.07;2.97;;;;;;;12.77;71.82;92673.56;2061846;69;20688;-74
2021/08/28 02:02:03;;;;;;;3.13;2.42;;;;;;;12.86;70.17;92671.88;2065243;69;20254;-74
2021/08/28 02:04:39;;;;;;;2.58;2.35;;;;;;;12.80;70.96;92675.13;2062024;69;20163;-74
2021/08/28 02:07:11;;;;;;;6.50;2.40;;;;;;;12.79;70.26;92676.50;2061817;69;20145;-74
2021/08/28 02:09:49;;;;;;;7.20;2.70;;;;;;;12.19;74.91;92674.72;2061937;69;20156;-74
2021/08/28 02:12:26;;;;;;;3.53;2.50;;;;;;;12.45;73.06;92678.22;2065243;69;20133;-74
2021/08/28 02:15:15;;;;;;;4.55;2.50;;;;;;;12.66;71.68;92677.22;2061887;69;20145;-74
2021/08/28 02:17:59;;;;;;;3.15;2.30;;;;;;;12.24;74.57;92684.88;2061913;69;20137;-74
2021/08/28 02:20:30;;;;;;;4.50;2.40;;;;;;;12.56;71.46;92673.88;2061876;69;20156;-75
2021/08/28 02:23:10;;;;;;;6.07;2.60;;;;;;;12.49;73.36;92672.06;2061790;69;20156;-74
2021/08/28 02:25:44;;;;;;;4.20;2.80;;;;;;;12.55;72.29;92673.09;2065441;69;20160;-74
2021/08/28 02:28:13;;;;;;;3.70;2.55;;;;;;;12.44;72.21;92671.84;2061851;69;20206;-74
2021/08/28 02:30:43;;;;;;;4.28;2.60;;;;;;;12.53;71.93;92670.19;2064681;69;20193;-74
2021/08/28 02:33:13;;;;;;;2.53;2.33;;;;;;;12.58;71.00;92665.47;2061814;69;20141;-74
2021/08/28 02:35:48;;;;;;;3.28;2.45;;;;;;;12.61;71.38;92667.78;2061840;69;20152;-74
2021/08/28 02:38:17;;;;;;;3.33;2.58;;;;;;;12.32;73.40;92664.81;2061728;69;20144;-74
2021/08/28 02:40:49;;;;;;;2.78;2.30;;;;;;;12.42;72.73;92649.16;2061845;69;20169;-74
2021/08/28 02:43:16;;;;;;;2.67;2.30;;;;;;;12.53;71.70;92652.50;2061824;69;20212;-74
2021/08/28 02:45:44;;;;;;;4.32;2.17;;;;;;;12.51;72.64;92646.75;2061822;69;20197;-74
2021/08/28 02:48:11;;;;;;;3.70;2.42;;;;;;;12.58;71.54;92648.53;2061808;69;20584;-74
2021/08/28 02:50:39;;;;;;;3.63;2.30;;;;;;;12.39;73.66;92652.50;2061827;69;20549;-74
2021/08/28 02:53:07;;;;;;;4.32;2.50;;;;;;;12.49;73.00;92644.56;2061686;69;20156;-74
2021/08/28 02:55:36;;;;;;;4.22;2.40;;;;;;;12.54;72.92;92646.22;2061747;69;20144;-75
2021/08/28 02:58:02;;;;;;;2.95;2.20;;;;;;;12.63;70.85;92650.94;2065028;69;20208;-74
2021/08/28 03:00:31;;;;;;;2.50;2.30;;;;;;;12.54;72.04;92642.69;2061573;69;20169;-74
2021/08/28 03:02:58;;;;;;;4.18;2.65;;;;;;;12.61;72.39;92645.19;2064887;69;20252;-74
2021/08/28 03:05:24;;;;;;;3.95;2.50;;;;;;;12.53;73.25;92650.41;2065035;69;20157;-74
2021/08/28 03:07:54;;;;;;;5.28;2.40;;;;;;;12.56;73.41;92651.28;2061429;69;20149;-74
2021/08/28 03:10:20;;;;;;;4.15;2.60;;;;;;;12.63;71.89;92650.22;2061526;69;20148;-74
2021/08/28 03:12:46;;;;;;;3.50;2.67;;;;;;;12.70;71.82;92652.75;2061523;69;20161;-74
2021/08/28 03:15:12;;;;;;;3.67;2.92;;;;;;;12.67;72.99;92644.78;2064932;69;20514;-74
2021/08/28 03:17:58;;;;;;;3.03;2.40;;;;;;;12.56;73.79;92648.44;2064721;69;20156;-74
2021/08/28 03:20:26;;;;;;;5.13;2.70;;;;;;;12.75;71.18;92647.31;2064312;69;20232;-74
2021/08/28 03:22:52;;;;;;;4.15;2.80;;;;;;;12.62;73.16;92646.66;2061373;69;20193;-74
2021/08/28 03:25:20;;;;;;;4.57;2.72;;;;;;;12.72;71.38;92643.63;2064265;69;20659;-74
2021/08/28 03:27:47;;;;;;;4.25;2.95;;;;;;;12.78;72.02;92649.59;2058715;69;20149;-74
2021/08/28 03:30:16;;;;;;;4.35;2.78;;;;;;;12.68;71.74;92644.16;2064163;69;20248;-74
2021/08/28 03:32:47;;;;;;;;;;;;;;;12.77;72.63;92642.47;2061646;69;20186;-74
2021/08/28 03:35:13;;;;;;;3.17;2.60;;;;;;;12.81;72.46;92639.13;2061425;69;20046;-74
2021/08/28 03:37:41;;;;;;;3.88;2.60;;;;;;;12.75;72.58;92631.09;2064797;69;20160;-74
2021/08/28 03:40:11;;;;;;;3.35;2.50;;;;;;;12.75;72.74;92625.44;2061498;69;20152;-74
2021/08/28 03:42:38;;;;;;;5.00;2.65;;;;;;;12.55;73.94;92624.38;2061475;69;20190;-74
2021/08/28 03:45:08;;;;;;;3.38;2.90;;;;;;;12.52;73.83;92634.13;2061502;69;20149;-74
2021/08/28 03:47:40;;;;;;;4.00;2.65;;;;;;;12.77;72.30;92630.44;2061494;69;20593;-74
2021/08/28 03:50:06;;;;;;;3.47;2.60;;;;;;;12.67;73.92;92631.38;2061473;69;20156;-74
2021/08/28 03:52:34;;;;;;;3.22;2.85;;;;;;;12.65;73.61;92634.13;2061345;69;20210;-74
2021/08/28 03:55:00;;;;;;;4.95;3.00;;;;;;;12.29;75.36;92632.94;2061405;69;20561;-74
2021/08/28 03:57:26;;;;;;;5.35;3.25;;;;;;;12.65;73.58;92636.22;2064722;69;20145;-74
2021/08/28 03:59:51;;;;;;;5.03;3.17;;;;;;;12.62;74.79;92640.28;2064497;69;20156;-74
2021/08/28 04:02:20;;;;;;;5.13;2.90;;;;;;;12.71;73.63;92640.06;2061703;69;20149;-74
2021/08/28 04:04:49;;;;;;;4.55;2.90;;;;;;;12.79;73.07;92628.47;2061668;69;20689;-74
2021/08/28 04:07:15;;;;;;;3.42;2.60;;;;;;;12.77;72.84;92627.63;2061559;69;20145;-74
2021/08/28 04:09:41;;;;;;;4.20;2.80;;;;;;;12.78;73.03;92629.81;2061688;69;20185;-74
2021/08/28 04:12:06;;;;;;;4.43;2.85;;;;;;;12.78;72.80;92621.34;2061647;69;20222;-74
2021/08/28 04:14:35;;;;;;;7.38;2.70;;;;;;;12.76;74.22;92614.88;2061610;69;20156;-74
2021/08/28 04:17:00;;;;;;;4.40;2.83;;;;;;;12.83;73.31;92611.72;2067175;69;20572;-74
2021/08/28 04:19:26;;;;;;;3.20;2.50;;;;;;;12.72;74.67;92607.63;2064761;69;20148;-72
2021/08/28 04:22:01;;;;;;;5.00;2.53;;;;;;;12.82;72.46;92618.00;2068208;69;20214;-74
2021/08/28 04:25:02;;;;;;;4.25;2.60;;;;;;;12.88;72.90;92613.41;2068254;69;20214;-75
2021/08/28 04:27:59;;;;;;;3.97;2.97;;;;;;;12.78;72.91;92610.03;2065077;69;20152;-72
2021/08/28 04:30:32;;;;;;;4.13;2.92;;;;;;;12.88;72.46;92607.03;2065095;69;20171;-72
2021/08/28 04:32:58;;;;;;;3.20;2.83;;;;;;;12.91;72.24;92605.75;2065010;69;20136;-72
2021/08/28 04:35:24;;;;;;;4.03;2.75;;;;;;;12.89;73.13;92612.03;2064905;69;20156;-72
2021/08/28 04:37:50;;;;;;;5.07;2.78;;;;;;;12.80;73.70;92618.63;2064842;69;20592;-72
2021/08/28 04:40:17;;;;;;;5.22;2.90;;;;;;;12.93;72.10;92617.16;2064936;69;20133;-73
2021/08/28 04:42:43;;;;;;;4.82;2.88;;;;;;;12.93;72.94;92611.50;2061922;69;20282;-72
2021/08/28 04:45:10;;;;;;;3.95;3.17;;;;;;;12.64;74.99;92606.50;2064934;69;20263;-73
2021/08/28 04:47:55;;;;;;;3.80;2.67;;;;;;;12.76;72.40;92614.88;2068181;69;20244;-73
2021/08/28 04:50:22;;;;;;;4.72;3.33;;;;;;;12.57;74.80;92608.28;2064941;69;20218;-73
2021/08/28 04:52:48;;;;;;;4.72;2.80;;;;;;;12.79;72.85;92614.34;2064772;69;20628;-75
2021/08/28 04:55:14;;;;;;;4.78;2.65;;;;;;;12.78;73.27;92609.31;2062095;69;20198;-75
2021/08/28 04:57:40;;;;;;;5.47;3.10;;;;;;;12.58;75.06;92617.47;2064819;69;20171;-74
2021/08/28 05:00:06;;;;;;;4.70;3.28;;;;;;;12.02;78.55;92632.88;2064918;69;20240;-74
2021/08/28 05:02:51;;;;;;;3.65;2.90;;;;;;;12.45;75.63;92625.31;2066791;69;20520;-75
2021/08/28 05:05:17;;;;;;;4.18;2.97;;;;;;;12.67;74.99;92616.53;2064832;69;20168;-75
2021/08/28 05:07:43;;;;;;;4.28;2.95;;;;;;;12.70;75.47;92620.94;2064732;69;20165;-75
2021/08/28 05:10:09;;;;;;;7.32;3.20;;;;;;;12.70;74.46;92621.66;2064813;69;20175;-75
2021/08/28 05:12:36;;;;;;;5.45;3.30;;;;;;;12.76;73.37;92624.06;2064821;69;20715;-75
2021/08/28 05:15:22;;;;;;;6.85;2.83;;;;;;;12.88;72.29;92624.69;2067999;69;20155;-75
2021/08/28 05:17:55;;;;;;;6.90;2.75;;;;;;;12.98;71.71;92630.13;2064825;69;20152;-75
2021/08/28 05:20:23;;;;;;;5.50;2.65;;;;;;;12.92;72.91;92626.97;2064811;69;20185;-75
2021/08/28 05:23:12;;;;;;;3.25;2.80;;;;;;;12.78;73.82;92637.56;2062881;69;20787;-75
2021/08/28 05:26:01;;;;;;;4.75;3.15;;;;;;;12.78;74.11;92637.56;2068076;69;20178;-75
2021/08/28 05:28:30;;;;;;;7.47;3.00;;;;;;;12.92;73.76;92643.94;2064740;69;20215;-75
2021/08/28 05:30:55;;;;;;;4.57;2.88;;;;;;;12.96;73.50;92636.41;2064759;69;20164;-76
2021/08/28 05:33:23;;;;;;;4.82;2.65;;;;;;;13.00;72.18;92638.69;2064721;69;20510;-75
2021/08/28 05:35:49;;;;;;;7.10;2.80;;;;;;;13.00;72.60;92635.16;2068128;69;20236;-75
2021/08/28 05:38:14;;;;;;;3.42;2.70;;;;;;;12.97;74.36;92635.06;2068117;69;20147;-75
2021/08/28 05:40:40;;;;;;;5.20;3.00;;;;;;;13.12;72.32;92632.94;2064703;69;20593;-74
2021/08/28 05:43:06;;;;;;;6.10;3.10;;;;;;;13.11;73.30;92634.31;2064747;69;20218;-75
2021/08/28 05:45:58;;;;;;;5.88;3.17;;;;;;;13.16;73.10;92630.31;2063832;69;20151;-75
2021/08/28 05:48:25;;;;;;;4.93;2.67;;;;;;;13.18;73.68;92621.94;2064686;69;20145;-74
2021/08/28 05:50:51;;;;;;;4.35;3.15;;;;;;;13.16;73.29;92621.84;2064694;69;20175;-75
2021/08/28 05:53:19;;;;;;;6.75;3.70;;;;;;;13.17;73.98;92621.19;2064610;69;20244;-74
2021/08/28 05:55:44;;;;;;;4.65;3.42;;;;;;;13.23;73.15;92623.63;2065213;69;20629;-74
2021/08/28 05:58:10;;;;;;;5.90;3.47;;;;;;;13.31;72.76;92628.97;2065154;69;20156;-75
2021/08/28 06:00:37;;;;;;;6.47;3.28;;;;;;;13.39;72.07;92624.44;2065227;69;20600;-75
2021/08/28 06:03:05;;;;;;;4.75;3.28;;;;;;;13.27;73.69;92623.81;2065242;69;20655;-74
2021/08/28 06:05:32;;;;;;;7.25;3.70;;;;;;;13.29;73.35;92632.44;2062089;69;20172;-74
2021/08/28 06:08:16;;;;;;;6.38;4.05;;;;;;;12.90;75.37;92629.72;2065053;69;20133;-73
2021/08/28 06:11:00;;;;;;;6.07;3.50;;;;;;;13.17;73.09;92628.97;2066773;69;20603;-73
2021/08/28 06:13:45;;;;;;;4.75;3.67;;;;;;;13.36;73.11;92625.69;2068473;69;20212;-72
2021/08/28 06:16:23;;;;;;;5.10;2.90;;;;;;;13.41;74.00;92618.13;2065196;69;20678;-73
2021/08/28 06:18:49;;;;;;;4.93;3.58;;;;;;;13.31;74.36;92614.81;2065154;69;20474;-75
2021/08/28 06:21:15;;;;;;;4.10;3.33;;;;;;;12.90;76.86;92615.59;2068582;69;20618;-74
2021/08/28 06:23:41;;;;;;;6.88;3.30;;;;;;;13.15;76.36;92623.94;2065110;69;20156;-73
2021/08/28 06:26:34;;;;;;;4.07;3.25;;;;;;;13.52;74.43;92628.59;2065220;69;20145;-72
2021/08/28 06:29:04;;;;;;;4.95;3.42;;;;;;;13.66;73.15;92617.97;2065179;69;20299;-72
2021/08/28 06:31:30;;;;;;;4.38;3.38;;;;;;;13.77;73.07;92616.34;2064582;69;20161;-72
2021/08/28 06:33:57;;;;;;;7.50;3.53;;;;;;;13.82;72.46;92620.09;2061833;69;20232;-73
2021/08/28 06:36:25;;;;;;;3.58;3.03;;;;;;;13.84;70.86;92618.09;2067540;69;20619;-73
2021/08/28 06:39:09;;;;;;;3.90;2.85;;;;;;;13.84;70.54;92620.94;2071812;69;20155;-74
2021/08/28 06:41:44;;;;;;;4.47;3.20;;;;;;;13.86;71.50;92625.94;2071883;69;20176;-74
2021/08/28 06:44:28;;;;;;;6.28;3.85;;;;;;;13.80;73.18;92628.50;2071777;69;20244;-74
2021/08/28 06:47:29;;;;;;;6.75;3.55;;;;;;;14.12;70.88;92630.03;2060780;69;20636;-74
2021/08/28 06:50:13;;;;;;;4.47;3.90;;;;;;;13.97;72.36;92625.06;2070948;69;20151;-74
2021/08/28 06:53:02;;;;;;;5.07;3.83;;;;;;;13.50;74.75;92622.09;2064962;69;20230;-73
2021/08/28 06:55:44;;;;;;;7.63;4.95;;;;;;;13.68;74.63;92618.06;2071759;69;20140;-74
2021/08/28 06:58:28;;;;;;;6.68;4.60;;;;;;;14.16;70.04;92618.91;2069003;69;20187;-74
2021/08/28 07:01:12;;;;;;;7.88;4.30;;;;;;;14.35;70.71;92609.13;2071866;69;20309;-74
2021/08/28 07:03:56;;;;;;;8.38;3.97;;;;;;;14.42;70.54;92608.03;2071896;69;20151;-76
2021/08/28 07:06:41;;;;;;;9.82;4.18;;;;;;;14.54;70.38;92607.88;2071442;69;20547;-73
2021/08/28 07:09:07;;;;;;;6.47;3.90;;;;;;;14.66;68.24;92604.84;2068593;69;20588;-74
2021/08/28 07:11:33;;;;;;;8.85;4.10;;;;;;;14.75;68.00;92606.66;2068464;69;20145;-74
2021/08/28 07:13:58;;;;;;;4.63;3.05;;;;;;;14.53;68.73;92606.44;2068399;69;20232;-75
2021/08/28 07:16:27;;;;;;;7.43;4.05;;;;;;;14.77;65.21;92597.53;2065511;69;20167;-74
2021/08/28 07:18:53;;;;;;;5.32;4.25;;;;;;;14.81;66.22;92597.72;2068315;69;20603;-75
2021/08/28 07:21:19;;;;;;;6.38;4.75;;;;;;;14.25;69.95;92605.84;2071683;69;20219;-74
2021/08/28 07:23:47;;;;;;;6.28;4.80;;;;;;;14.25;70.67;92605.84;2068238;69;20611;-75
2021/08/28 07:26:26;;;;;;;5.53;4.45;;;;;;;14.35;70.16;92600.63;2068345;69;20147;-74
2021/08/28 07:29:12;;;;;;;6.45;4.43;;;;;;;14.91;69.12;92609.47;2071633;69;20267;-73
2021/08/28 07:31:41;;;;;;;6.15;4.35;;;;;;;15.08;66.41;92597.47;2068370;69;20187;-74
2021/08/28 07:34:06;;;;;;;5.90;4.43;;;;;;;15.15;66.91;92610.50;2068336;69;20627;-74
2021/08/28 07:36:32;;;;;;;5.88;4.55;;;;;;;14.97;67.00;92607.63;2068191;69;20160;-74
2021/08/28 07:38:58;;;;;;;4.65;3.92;;;;;;;14.81;69.52;92612.59;2068368;69;20148;-75
2021/08/28 07:41:25;;;;;;;5.97;3.80;;;;;;;14.82;68.98;92610.50;2068322;69;20260;-74
2021/08/28 07:43:51;;;;;;;4.18;3.10;;;;;;;14.84;68.03;92610.56;2068217;69;20176;-73
2021/08/28 07:46:17;;;;;;;4.80;3.47;;;;;;;14.62;69.03;92616.00;2064915;69;20153;-74
2021/08/28 07:48:52;;;;;;;4.05;3.53;;;;;;;14.81;69.04;92609.06;2064358;69;20176;-73
2021/08/28 07:51:18;;;;;;;6.25;3.33;;;;;;;14.33;69.93;92622.47;2064491;69;20147;-74
2021/08/28 07:53:43;;;;;;;9.70;3.40;;;;;;;14.40;68.90;92615.72;2064561;69;20515;-74
2021/08/28 07:56:14;;;;;;;4.35;3.40;;;;;;;14.76;67.97;92615.91;2067111;69;20600;-72
2021/08/28 07:58:39;;;;;;;4.43;3.60;;;;;;;14.30;69.42;92624.47;2064625;69;20157;-72
2021/08/28 08:01:05;;;;;;;5.35;3.70;;;;;;;14.03;70.68;92616.88;2064665;69;20519;-74
2021/08/28 08:03:41;;;;;;;5.95;4.20;;;;;;;14.50;68.31;92616.19;2064717;69;20195;-73
2021/08/28 08:06:16;;;;;;;9.43;4.50;;;;;;;14.64;68.65;92616.09;2067850;69;20144;-74
2021/08/28 08:09:00;;;;;;;7.03;4.03;;;;;;;13.83;72.04;92613.06;2067579;69;20235;-73
2021/08/28 08:11:52;;;;;;;4.15;3.60;;;;;;;14.66;70.07;92616.94;2065059;69;20207;-73
2021/08/28 08:14:36;;;;;;;4.78;3.53;;;;;;;14.39;69.41;92634.81;2067993;69;20187;-73
2021/08/28 08:17:24;;;;;;;4.43;3.55;;;;;;;14.81;68.78;92620.38;2066095;69;20152;-74
2021/08/28 08:20:09;;;;;;;4.55;3.17;;;;;;;14.38;67.74;92629.75;2068264;69;20335;-74
2021/08/28 08:22:53;;;;;;;4.60;3.63;;;;;;;14.69;67.93;92623.41;2068195;69;20496;-75
2021/08/28 08:25:37;;;;;;;7.30;3.95;;;;;;;14.85;67.69;92629.78;2067793;69;20623;-74
2021/08/28 08:28:28;;;;;;;5.97;3.55;;;;;;;14.31;68.85;92631.59;2067262;69;20649;-74
2021/08/28 08:31:26;;;;;;;4.38;3.33;;;;;;;14.70;67.62;92633.34;2064746;69;20541;-74
2021/08/28 08:33:54;;;;;;;5.90;3.50;;;;;;;14.47;68.65;92634.44;2064407;69;20183;-74
2021/08/28 08:36:20;;;;;;;7.25;3.70;;;;;;;14.52;68.88;92627.59;2064545;69;20188;-74
2021/08/28 08:38:46;;;;;;;6.07;3.67;;;;;;;14.65;68.17;92623.22;2064722;69;20266;-75
2021/08/28 08:41:12;;;;;;;7.80;3.50;;;;;;;15.17;66.72;92627.63;2067766;69;20178;-74
2021/08/28 08:43:45;;;;;;;5.77;3.87;;;;;;;14.68;67.31;92627.59;2064777;69;20580;-73
2021/08/28 08:46:11;;;;;;;5.45;3.70;;;;;;;14.95;66.62;92635.91;2068037;69;20228;-73
2021/08/28 08:48:37;;;;;;;6.28;3.92;;;;;;;15.30;65.91;92630.97;2064714;69;20152;-73
2021/08/28 08:51:04;;;;;;;4.97;3.35;;;;;;;15.04;66.46;92630.59;2064760;69;20157;-73
2021/08/28 08:53:35;;;;;;;5.50;4.03;;;;;;;15.26;65.30;92634.38;2067911;69;20148;-73
2021/08/28 08:56:10;;;;;;;6.53;3.97;;;;;;;14.89;67.63;92629.22;2064969;69;20149;-73
2021/08/28 08:58:38;;;;;;;5.05;3.80;;;;;;;15.30;65.78;92628.84;2064848;69;20145;-72
2021/08/28 09:01:06;;;;;;;5.43;4.25;;;;;;;14.95;66.90;92629.50;2068208;69;20149;-72
2021/08/28 09:03:34;;;;;;;4.05;3.55;;;;;;;15.05;66.29;92627.09;2065151;69;20184;-72
2021/08/28 09:06:03;;;;;;;5.40;3.83;;;;;;;15.05;66.56;92629.94;2068215;69;20604;-72
2021/08/28 09:08:33;;;;;;;5.85;3.80;;;;;;;15.39;65.95;92621.41;2064831;69;20209;-72
2021/08/28 09:10:59;;;;;;;4.40;3.83;;;;;;;15.10;66.36;92630.84;2068995;69;20247;-72
2021/08/28 09:13:26;;;;;;;5.65;3.67;;;;;;;15.83;63.88;92619.72;2068235;69;20180;-72
2021/08/28 09:16:04;;;;;;;8.27;4.07;;;;;;;15.86;63.76;92629.06;2068058;69;20262;-73
2021/08/28 09:18:52;;;;;;;6.05;3.53;;;;;;;15.92;64.17;92632.84;2068373;69;20611;-74
2021/08/28 09:21:21;;;;;;;7.90;3.78;;;;;;;15.13;66.62;92633.13;2068229;69;20145;-73
2021/08/28 09:23:47;;;;;;;5.30;3.83;;;;;;;15.51;64.06;92622.66;2067898;69;20144;-74
2021/08/28 09:26:27;;;;;;;6.93;3.88;;;;;;;15.36;66.10;92626.28;2068215;69;20149;-73
2021/08/28 09:28:55;;;;;;;5.25;3.85;;;;;;;15.09;67.46;92638.63;2068318;69;20228;-73
2021/08/28 09:32:01;;;;;;;4.90;3.67;;;;;;;15.64;66.19;92628.88;2068618;69;20593;-74
2021/08/28 09:34:29;;;;;;;5.20;4.18;;;;;;;15.36;67.49;92623.44;2067340;69;20191;-73
2021/08/28 09:37:00;;;;;;;8.50;4.43;;;;;;;16.03;65.65;92628.28;2068584;69;20573;-75
2021/08/28 09:39:37;;;;;;;6.57;4.25;;;;;;;15.95;65.22;92628.72;2068654;69;20146;-74
2021/08/28 09:42:04;;;;;;;6.10;4.70;;;;;;;16.42;64.95;92626.97;2068742;69;20145;-74
2021/08/28 09:44:35;;;;;;;6.38;4.03;;;;;;;16.72;64.17;92624.53;2068842;69;20146;-74
2021/08/28 09:47:17;;;;;;;8.10;4.20;;;;;;;16.10;65.02;92632.13;2068705;69;20145;-73
2021/08/28 09:49:45;;;;;;;5.97;3.95;;;;;;;16.51;63.80;92626.63;2068673;69;20153;-74
2021/08/28 09:52:42;;;;;;;4.88;4.07;;;;;;;16.99;63.65;92631.91;2068576;69;20232;-74
2021/08/28 09:55:08;;;;;;;5.07;4.10;;;;;;;17.51;62.52;92621.66;2068365;69;20225;-74
2021/08/28 09:57:33;;;;;;;7.57;4.40;;;;;;;17.82;62.39;92616.28;2068443;69;20145;-75
2021/08/28 10:00:00;;;;;;;5.88;4.07;;;;;;;18.96;63.74;92623.34;2068736;69;20152;-75
2021/08/28 10:02:26;;;;;;;5.80;4.25;;;;;;;18.85;58.83;92621.63;2065280;69;20168;-76
2021/08/28 10:04:53;;;;;;;8.00;4.53;;;;;;;18.72;57.80;92625.50;2068594;69;20590;-75
2021/08/28 10:07:27;;;;;;;4.55;3.63;;;;;;;18.37;57.55;92629.41;2068493;69;20160;-73
2021/08/28 10:09:55;;;;;;;4.53;3.50;;;;;;;18.06;58.34;92633.44;2068224;69;20164;-74
2021/08/28 10:12:21;;;;;;;3.35;2.90;;;;;;;18.47;57.24;92635.44;2068398;69;20361;-78
2021/08/28 10:14:48;;;;;;;3.60;2.92;;;;;;;17.60;58.39;92624.78;2068662;69;20156;-75
2021/08/28 10:17:16;;;;;;;4.93;2.90;;;;;;;18.13;57.60;92620.81;2068570;69;20155;-75
2021/08/28 10:19:43;;;;;;;4.68;3.22;;;;;;;18.78;57.86;92620.72;2068687;69;20247;-75
2021/08/28 10:22:13;;;;;;;4.15;2.72;;;;;;;18.45;55.51;92624.69;2068496;69;20145;-75
2021/08/28 10:24:43;;;;;;;3.67;2.60;;;;;;;18.40;56.73;92616.69;2068576;69;20319;-74
2021/08/28 10:27:09;;;;;;;3.67;2.67;;;;;;;18.68;56.90;92620.38;2068684;69;20157;-74
2021/08/28 10:29:36;;;;;;;3.78;2.90;;;;;;;18.24;56.98;92619.78;2068602;69;20245;-74
2021/08/28 10:32:03;;;;;;;3.55;2.55;;;;;;;18.04;56.84;92623.41;2068551;69;20204;-74
2021/08/28 10:34:29;;;;;;;3.47;2.72;;;;;;;17.69;57.68;92613.00;2068597;69;20149;-74
2021/08/28 10:36:55;;;;;;;6.05;3.78;;;;;;;17.50;56.72;92619.47;2068427;69;20143;-74
2021/08/28 10:39:21;;;;;;;4.03;2.63;;;;;;;17.30;56.60;92615.94;2068627;69;20144;-74
2021/08/28 10:41:47;;;;;;;3.80;2.72;;;;;;;17.93;55.95;92613.09;2068532;69;20121;-76
2021/08/28 10:44:12;;;;;;;3.08;2.70;;;;;;;18.81;54.67;92620.78;2068554;69;20255;-75
2021/08/28 10:46:42;;;;;;;2.78;2.30;;;;;;;18.52;53.62;92619.91;2065197;69;20191;-75
2021/08/28 10:49:22;;;;;;;3.72;2.20;;;;;;;18.19;55.31;92618.16;2065204;69;20236;-75
2021/08/28 10:51:54;;;;;;;4.13;2.75;;;;;;;18.17;54.97;92618.84;2065077;69;20597;-77
2021/08/28 10:54:29;;;;;;;4.18;2.80;;;;;;;18.08;56.69;92622.09;2068506;69;20170;-75
2021/08/28 10:56:57;;;;;;;5.10;2.80;;;;;;;18.74;55.96;92622.72;2068512;69;20183;-76
2021/08/28 10:59:25;;;;;;;3.33;2.70;;;;;;;17.76;59.12;92619.66;2068519;69;20145;-74
2021/08/28 11:01:59;;;;;;;3.33;2.50;;;;;;;18.18;58.29;92633.81;2068466;69;20173;-73
2021/08/28 11:04:29;;;;;;;2.83;2.30;;;;;;;19.54;55.66;92628.50;2068471;69;20156;-74
2021/08/28 11:07:19;;;;;;;2.75;2.17;;;;;;;23.29;48.66;92638.75;2068443;69;20141;-73
2021/08/28 11:10:09;;;;;;;3.17;1.92;;;;;;;25.56;43.13;92647.16;2068503;69;20548;-74
2021/08/28 11:13:06;;;;;;;1.92;1.52;;;;;;;26.94;38.48;92639.47;2068565;69;20168;-74
2021/08/28 11:15:34;;;;;;;1.70;1.10;;;;;;;25.55;39.63;92636.34;2068417;69;20164;-75
2021/08/28 11:18:01;;;;;;;1.40;1.30;;;;;;;26.37;39.34;92631.53;2066753;69;20167;-73
2021/08/28 11:20:47;;;;;;;2.45;1.50;;;;;;;24.45;39.89;92627.03;2067509;69;20152;-73
2021/08/28 11:23:14;;;;;;;1.65;1.30;;;;;;;26.28;36.86;92624.31;2067459;69;20248;-75
2021/08/28 11:25:43;;;;;;;1.40;1.30;;;;;;;31.18;32.18;92626.91;2067991;69;20156;-73
2021/08/28 11:28:10;;;;;;;33.90;3.60;;;;;;;32.80;29.62;92616.28;2068257;69;20227;-73
2021/08/28 11:30:54;;;;;;;1.67;1.20;;;;;;;34.91;26.47;92628.69;2068348;69;20198;-74
2021/08/28 11:33:19;;;;;;;1.23;1.02;;;;;;;34.45;25.21;92625.72;2068201;69;20585;-75
2021/08/28 11:35:58;;;;;;;1.63;1.00;;;;;;;35.21;22.76;92629.22;2068270;69;20239;-74
2021/08/28 11:38:38;;;;;;;0.70;0.70;;;;;;;36.55;23.70;92629.59;2064897;69;20594;-74
2021/08/28 11:41:08;;;;;;;0.85;0.80;;;;;;;36.88;22.82;92634.88;2068364;69;20149;-74
2021/08/28 11:43:37;;;;;;;1.90;0.80;;;;;;;35.07;24.82;92624.56;2068279;69;20153;-75
2021/08/28 11:46:09;;;;;;;0.68;0.68;;;;;;;31.59;27.01;92626.88;2067398;69;20266;-75
2021/08/28 11:48:37;;;;;;;0.73;0.70;;;;;;;35.70;24.14;92628.28;2068255;69;20669;-75
2021/08/28 11:51:16;;;;;;;1.98;0.60;;;;;;;35.48;21.67;92623.94;2064460;69;20148;-74
2021/08/28 11:53:43;;;;;;;0.88;0.70;;;;;;;33.34;23.82;92616.41;2067928;69;20226;-74
2021/08/28 11:56:15;;;;;;;0.70;0.70;;;;;;;27.59;30.04;92599.56;2067979;69;20148;-73